createdAt,value
2017-09-01T00:04:45.468Z,69.04
2017-09-01T00:09:56.842Z,69.38
2017-09-01T00:15:09.187Z,69.80
2017-09-01T00:20:15.718Z,69.79
2017-09-01T00:25:22.383Z,70.03
2017-09-01T00:30:38.196Z,70.18
2017-09-01T00:35:50.370Z,70.15
2017-09-01T00:40:56.756Z,70.03
2017-09-01T00:46:15.386Z,70.10
2017-09-01T00:51:35.746Z,69.71
2017-09-01T00:56:43.693Z,70.00
2017-09-01T01:01:50.372Z,69.46
2017-09-01T01:07:02.264Z,69.46
2017-09-01T01:12:07.982Z,70.25
2017-09-01T01:22:29.729Z,71.67
2017-09-01T01:27:34.757Z,71.06
2017-09-01T01:32:40.030Z,70.97
2017-09-01T01:37:54.366Z,71.15
2017-09-01T01:48:23.720Z,71.15
2017-09-01T01:53:30.693Z,71.19
2017-09-01T01:58:36.320Z,71.05
2017-09-01T02:03:46.244Z,70.87
2017-09-01T02:19:28.100Z,71.41
2017-09-01T02:24:35.814Z,71.40
2017-09-01T02:29:47.490Z,71.26
2017-09-01T02:34:57.981Z,70.98
2017-09-01T02:40:10.862Z,71.07
2017-09-01T02:50:45.114Z,70.51
2017-09-01T02:55:51.401Z,70.44
2017-09-01T03:01:02.593Z,70.54
2017-09-01T03:06:13.944Z,70.82
2017-09-01T03:11:21.027Z,70.62
2017-09-01T03:16:34.379Z,70.43
2017-09-01T03:21:37.293Z,70.48
2017-09-01T03:26:40.970Z,70.76
2017-09-01T03:31:43.323Z,71.15
2017-09-01T03:36:45.352Z,71.60
2017-09-01T03:41:47.388Z,71.31
2017-09-01T03:46:49.526Z,71.19
2017-09-01T03:51:51.550Z,70.76
2017-09-01T03:56:53.543Z,71.65
2017-09-01T04:01:55.596Z,71.57
2017-09-01T04:06:57.809Z,71.24
2017-09-01T04:11:59.791Z,71.05
2017-09-01T04:17:02.301Z,71.06
2017-09-01T04:22:04.311Z,70.76
2017-09-01T04:27:06.287Z,70.70
2017-09-01T04:32:08.241Z,70.85
2017-09-01T04:37:10.171Z,71.08
2017-09-01T04:42:12.283Z,71.04
2017-09-01T04:47:14.275Z,70.67
2017-09-01T04:52:16.396Z,70.85
2017-09-01T04:57:18.568Z,71.35
2017-09-01T05:02:20.726Z,71.61
2017-09-01T05:07:22.891Z,72.09
2017-09-01T05:12:25.264Z,71.77
2017-09-01T05:17:27.539Z,71.73
2017-09-01T05:22:29.848Z,71.58
2017-09-01T05:27:32.161Z,71.14
2017-09-01T05:32:34.656Z,70.85
2017-09-01T05:37:37.034Z,70.73
2017-09-01T05:42:39.251Z,70.62
2017-09-01T05:47:41.207Z,70.26
2017-09-01T05:52:43.123Z,70.11
2017-09-01T05:57:45.041Z,69.76
2017-09-01T06:02:46.978Z,69.33
2017-09-01T06:07:48.884Z,69.00
2017-09-01T06:12:50.801Z,68.79
2017-09-01T06:17:52.737Z,69.04
2017-09-01T06:22:54.917Z,68.38
2017-09-01T06:27:56.846Z,68.10
2017-09-01T06:32:58.752Z,67.67
2017-09-01T06:38:00.690Z,67.32
2017-09-01T06:43:02.630Z,66.79
2017-09-01T06:48:04.581Z,66.56
2017-09-01T06:53:06.556Z,66.42
2017-09-01T06:58:08.472Z,66.28
2017-09-01T07:03:10.408Z,66.30
2017-09-01T07:08:12.353Z,65.82
2017-09-01T07:13:14.297Z,64.85
2017-09-01T07:18:16.220Z,65.39
2017-09-01T07:23:18.194Z,65.99
2017-09-01T07:28:20.104Z,65.20
2017-09-01T07:33:22.074Z,64.14
2017-09-01T07:38:23.991Z,62.75
2017-09-01T07:43:25.928Z,62.59
2017-09-01T07:48:27.855Z,61.53
2017-09-01T07:53:29.789Z,60.58
2017-09-01T07:58:31.711Z,60.21
2017-09-01T08:03:33.628Z,58.57
2017-09-01T08:08:35.564Z,58.56
2017-09-01T08:13:37.470Z,59.48
2017-09-01T08:18:39.389Z,58.46
2017-09-01T08:23:41.390Z,57.96
2017-09-01T08:28:43.429Z,57.20
2017-09-01T08:33:45.349Z,55.36
2017-09-01T08:38:47.647Z,55.33
2017-09-01T08:43:50.249Z,53.23
2017-09-01T08:48:52.508Z,48.72
2017-09-01T08:53:56.246Z,50.30
2017-09-01T08:58:58.473Z,49.13
2017-09-01T09:04:00.481Z,48.52
2017-09-01T09:09:02.471Z,48.87
2017-09-01T09:14:04.448Z,48.19
2017-09-01T09:19:06.495Z,47.37
2017-09-01T09:24:08.829Z,47.46
2017-09-01T09:29:11.112Z,46.63
2017-09-01T09:34:14.462Z,46.61
2017-09-01T09:39:16.395Z,45.64
2017-09-01T09:44:18.376Z,46.27
2017-09-01T09:49:20.695Z,43.67
2017-09-01T09:54:22.658Z,42.17
2017-09-01T09:59:24.795Z,41.45
2017-09-01T10:04:27.153Z,40.72
2017-09-01T10:09:29.095Z,42.12
2017-09-01T10:14:31.024Z,41.59
2017-09-01T10:19:33.413Z,42.88
2017-09-01T10:24:37.514Z,43.87
2017-09-01T10:29:40.232Z,43.39
2017-09-01T10:34:42.168Z,42.68
2017-09-01T10:39:44.669Z,41.38
2017-09-01T10:44:46.630Z,41.52
2017-09-01T10:55:51.339Z,38.97
2017-09-01T11:00:53.258Z,39.95
2017-09-01T11:05:55.231Z,41.29
2017-09-01T11:10:57.215Z,38.43
2017-09-01T11:15:59.223Z,38.14
2017-09-01T11:21:08.113Z,37.80
2017-09-01T11:26:10.287Z,38.48
2017-09-01T11:31:14.331Z,38.59
2017-09-01T11:36:18.783Z,37.74
2017-09-01T11:41:21.632Z,37.03
2017-09-01T11:46:23.676Z,37.54
2017-09-01T11:51:26.375Z,37.29
2017-09-01T11:56:33.844Z,37.47
2017-09-01T12:01:40.583Z,36.81
2017-09-01T12:06:46.571Z,35.51
2017-09-01T12:11:48.520Z,36.60
2017-09-01T12:16:51.694Z,35.56
2017-09-01T12:21:53.637Z,35.31
2017-09-01T12:26:55.703Z,35.89
2017-09-01T12:31:57.667Z,36.04
2017-09-01T12:36:59.586Z,36.97
2017-09-01T12:42:01.663Z,36.76
2017-09-01T12:47:03.807Z,37.41
2017-09-01T12:52:05.732Z,36.78
2017-09-01T12:57:07.648Z,36.81
2017-09-01T13:02:09.629Z,34.86
2017-09-01T13:07:11.584Z,34.86
2017-09-01T13:12:13.552Z,34.75
2017-09-01T13:17:15.471Z,34.62
2017-09-01T13:22:17.396Z,34.46
2017-09-01T13:27:19.394Z,32.44
2017-09-01T13:32:21.295Z,31.25
2017-09-01T13:37:23.248Z,32.97
2017-09-01T13:42:25.168Z,32.48
2017-09-01T13:47:27.091Z,31.34
2017-09-01T13:52:29.014Z,30.63
2017-09-01T13:57:30.933Z,31.79
2017-09-01T14:02:32.872Z,30.64
2017-09-01T14:07:34.782Z,32.22
2017-09-01T14:12:36.688Z,31.90
2017-09-01T14:17:38.599Z,31.67
2017-09-01T14:22:40.504Z,32.24
2017-09-01T14:27:43.886Z,33.15
2017-09-01T14:32:45.867Z,33.37
2017-09-01T14:37:47.779Z,34.08
2017-09-01T14:42:49.688Z,33.68
2017-09-01T14:47:53.564Z,33.84
2017-09-01T14:52:55.511Z,35.71
2017-09-01T14:57:57.471Z,35.22
2017-09-01T15:02:59.404Z,36.07
2017-09-01T15:08:01.321Z,37.24
2017-09-01T15:13:03.279Z,39.09
2017-09-01T15:18:05.300Z,39.51
2017-09-01T15:23:11.583Z,39.29
2017-09-01T15:28:25.697Z,38.86
2017-09-01T15:38:51.185Z,39.44
2017-09-01T15:44:00.664Z,37.48
2017-09-01T15:49:06.053Z,36.42
2017-09-01T15:54:22.615Z,36.62
2017-09-01T15:59:30.780Z,35.75
2017-09-01T16:04:37.085Z,34.62
2017-09-01T16:09:42.163Z,35.09
2017-09-01T16:14:46.875Z,34.79
2017-09-01T16:19:52.338Z,34.94
2017-09-01T16:24:57.926Z,33.69
2017-09-01T16:30:02.596Z,34.24
2017-09-01T16:35:08.536Z,35.28
2017-09-01T16:40:26.171Z,36.92
2017-09-01T16:45:38.166Z,37.37
2017-09-01T16:50:48.298Z,38.03
2017-09-01T16:55:58.691Z,38.21
2017-09-01T17:01:03.534Z,39.42
2017-09-01T17:06:08.753Z,39.88
2017-09-01T17:11:13.979Z,41.43
2017-09-01T17:16:29.013Z,43.45
2017-09-01T17:21:34.616Z,44.37
2017-09-01T17:26:46.952Z,45.49
2017-09-01T17:31:52.738Z,46.33
2017-09-01T17:36:57.797Z,46.67
2017-09-01T17:42:10.323Z,48.21
2017-09-01T17:47:23.870Z,48.35
2017-09-01T17:52:31.820Z,48.68
2017-09-01T18:02:53.313Z,50.12
2017-09-01T18:08:03.449Z,50.37
2017-09-01T18:13:15.397Z,50.52
2017-09-01T18:18:20.521Z,50.81
2017-09-01T18:23:25.575Z,51.07
2017-09-01T18:28:30.154Z,51.48
2017-09-01T18:33:41.957Z,52.42
2017-09-01T18:38:51.430Z,53.13
2017-09-01T18:43:59.373Z,53.59
2017-09-01T18:49:03.769Z,53.83
2017-09-01T18:54:15.383Z,53.90
2017-09-01T18:59:22.048Z,54.20
2017-09-01T19:04:26.933Z,55.29
2017-09-01T19:09:30.886Z,56.24
2017-09-01T19:14:37.190Z,56.95
2017-09-01T19:19:51.974Z,56.79
2017-09-01T19:25:02.041Z,56.76
2017-09-01T19:30:13.058Z,56.52
2017-09-01T19:35:16.329Z,56.46
2017-09-01T19:40:19.357Z,56.39
2017-09-01T19:45:24.985Z,57.18
2017-09-01T19:50:27.623Z,59.22
2017-09-01T19:55:29.976Z,58.69
2017-09-01T20:00:36.800Z,59.36
2017-09-01T20:05:41.337Z,59.48
2017-09-01T20:10:48.426Z,59.75
2017-09-01T20:15:52.093Z,59.04
2017-09-01T20:20:54.825Z,58.92
2017-09-01T20:25:57.773Z,58.19
2017-09-01T20:31:02.315Z,57.91
2017-09-01T20:36:06.145Z,59.10
2017-09-01T20:41:12.901Z,59.24
2017-09-01T20:46:15.757Z,59.47
2017-09-01T20:51:19.535Z,59.22
2017-09-01T20:56:26.165Z,59.32
2017-09-01T21:01:34.215Z,60.12
2017-09-01T21:06:38.416Z,60.47
2017-09-01T21:11:42.145Z,60.90
2017-09-01T21:16:48.828Z,60.46
2017-09-01T21:21:52.488Z,60.31
2017-09-01T21:26:54.894Z,60.07
2017-09-01T21:32:01.489Z,59.74
2017-09-01T21:37:06.701Z,59.82
2017-09-01T21:42:11.318Z,60.06
2017-09-01T21:47:15.930Z,59.94
2017-09-01T21:52:18.817Z,59.58
2017-09-01T21:57:24.274Z,59.63
2017-09-01T22:02:32.814Z,59.87
2017-09-01T22:07:35.595Z,60.08
2017-09-01T22:12:43.321Z,60.18
2017-09-01T22:17:45.721Z,59.76
2017-09-01T22:22:48.015Z,59.58
2017-09-01T22:27:50.328Z,59.79
2017-09-01T22:32:52.669Z,59.96
2017-09-01T22:37:54.923Z,60.37
2017-09-01T22:42:57.202Z,60.30
2017-09-01T22:47:59.198Z,60.30
2017-09-01T22:53:01.139Z,60.53
2017-09-01T22:58:03.181Z,61.11
2017-09-01T23:03:05.386Z,61.04
2017-09-01T23:08:07.689Z,61.01
2017-09-01T23:13:09.958Z,60.41
2017-09-01T23:18:12.087Z,61.05
2017-09-01T23:23:14.034Z,61.49
2017-09-01T23:28:16.046Z,61.88
2017-09-01T23:33:17.980Z,62.41
2017-09-01T23:38:19.947Z,62.99
2017-09-01T23:43:21.991Z,63.07
2017-09-01T23:48:23.946Z,63.39
2017-09-01T23:53:26.695Z,63.39
2017-09-01T23:58:28.730Z,63.65
